Coleridge, North Carolina
Current Conditions -  °F | °C
As of 9:55 AM on Wednesday 22 Oct 2014 (Local Time) from K5W8 Reporting Station
Clear Clear  
Wind Chill: 54°   Ceiling: Unl
Heat Index: 54°   Visibility: 10mi
Dew Point: 40°   Wind: 14mph
Humidity: 59%   Direction: 330°NNW
Pressure: 30.03"   Gusts: 18mph
Location:  35.6832°N, 79.6174°W
Report Text: K5W8 221355Z AUTO 33012G16KT 10SM CLR 12/04 A3003 RMK AO2 T01210043
Loading
Personal Weather Stations






























Interactive Weather Map
Tropical Storm Tracking
New forecast layout! Learn more

10-Day Weather Forecast

Advertisements
Track Severe Weather on mobile